createdAt,value
2022-10-24T00:02:26.205Z,28.42
2022-10-24T00:05:13.912Z,27.38
2022-10-24T00:07:54.409Z,29.10
2022-10-24T00:10:21.776Z,25.92
2022-10-24T00:12:49.275Z,27.83
2022-10-24T00:15:17.153Z,24.80
2022-10-24T00:17:45.090Z,30.20
2022-10-24T00:20:13.111Z,29.75
2022-10-24T00:22:42.358Z,29.70
2022-10-24T00:25:10.092Z,26.88
2022-10-24T00:27:37.869Z,27.77
2022-10-24T00:30:13.071Z,26.92
2022-10-24T00:32:40.437Z,27.63
2022-10-24T00:35:27.989Z,26.83
2022-10-24T00:38:09.304Z,25.80
2022-10-24T00:40:36.732Z,26.42
2022-10-24T00:43:05.003Z,26.83
2022-10-24T00:46:13.622Z,29.30
2022-10-24T00:49:09.787Z,29.85
2022-10-24T00:52:17.601Z,30.35
2022-10-24T00:55:22.412Z,26.50
2022-10-24T00:58:05.678Z,28.77
2022-10-24T01:00:34.457Z,27.60
2022-10-24T01:03:02.734Z,30.35
2022-10-24T01:05:40.376Z,31.23
2022-10-24T01:08:36.619Z,27.20
2022-10-24T01:11:40.281Z,30.20
2022-10-24T01:14:13.569Z,27.60
2022-10-24T01:16:52.827Z,29.90
2022-10-24T01:19:48.076Z,31.70
2022-10-24T01:22:28.247Z,28.27
2022-10-24T01:25:06.230Z,28.92
2022-10-24T01:28:12.477Z,30.92
2022-10-24T01:30:53.601Z,31.23
2022-10-24T01:33:31.187Z,30.92
2022-10-24T01:36:07.674Z,30.30
2022-10-24T01:38:37.512Z,29.88
2022-10-24T01:41:20.184Z,32.05
2022-10-24T01:44:14.637Z,29.73
2022-10-24T01:47:38.812Z,31.08
2022-10-24T01:50:23.080Z,28.98
2022-10-24T01:52:53.806Z,29.52
2022-10-24T01:55:39.883Z,30.40
2022-10-24T01:58:40.726Z,31.65
2022-10-24T02:01:24.615Z,32.95
2022-10-24T02:04:00.212Z,30.20
2022-10-24T02:06:34.991Z,30.40
2022-10-24T02:09:16.752Z,31.02
2022-10-24T02:11:46.861Z,30.10
2022-10-24T02:14:24.316Z,30.83
2022-10-24T02:17:11.660Z,29.23
2022-10-24T02:19:52.965Z,29.13
2022-10-24T02:22:29.380Z,29.73
2022-10-24T02:25:03.439Z,29.33
2022-10-24T02:27:44.023Z,29.85
2022-10-24T02:30:16.337Z,30.15
2022-10-24T02:32:47.590Z,31.33
2022-10-24T02:35:20.449Z,32.15
2022-10-24T02:37:55.314Z,30.88
2022-10-24T02:40:24.058Z,31.75
2022-10-24T02:42:54.662Z,30.00
2022-10-24T02:45:42.606Z,31.38
2022-10-24T02:48:28.995Z,29.13
2022-10-24T02:51:18.730Z,31.08
2022-10-24T02:54:19.695Z,32.13
2022-10-24T02:57:21.623Z,31.35
2022-10-24T03:00:02.701Z,31.67
2022-10-24T03:02:50.626Z,30.60
2022-10-24T03:05:32.707Z,32.22
2022-10-24T03:08:00.093Z,33.63
2022-10-24T03:10:27.594Z,31.85
2022-10-24T03:12:55.521Z,32.78
2022-10-24T03:15:23.173Z,31.02
2022-10-24T03:17:58.903Z,35.13
2022-10-24T03:20:26.672Z,32.00
2022-10-24T03:22:54.376Z,33.95
2022-10-24T03:25:21.839Z,34.00
2022-10-24T03:28:09.630Z,33.20
2022-10-24T03:30:52.070Z,32.13
2022-10-24T03:33:21.028Z,34.47
2022-10-24T03:35:53.620Z,32.85
2022-10-24T03:38:23.424Z,33.05
2022-10-24T03:40:51.148Z,35.40
2022-10-24T03:43:38.963Z,35.40
2022-10-24T03:46:22.951Z,35.75
2022-10-24T03:48:50.895Z,36.35
2022-10-24T03:51:38.677Z,37.10
2022-10-24T03:54:41.773Z,37.83
2022-10-24T03:57:22.692Z,34.90
2022-10-24T03:59:50.416Z,37.95
2022-10-24T04:02:20.686Z,36.40
2022-10-24T04:04:48.671Z,37.05
2022-10-24T04:07:16.309Z,38.05
2022-10-24T04:09:45.302Z,37.22
2022-10-24T04:12:32.786Z,37.83
2022-10-24T04:15:35.028Z,38.35
2022-10-24T04:18:15.864Z,38.67
2022-10-24T04:21:03.776Z,38.60
2022-10-24T04:23:45.208Z,36.25
2022-10-24T04:26:15.933Z,36.42
2022-10-24T04:28:44.762Z,37.45
2022-10-24T04:31:15.071Z,37.35
2022-10-24T04:33:44.861Z,36.33
2022-10-24T04:36:12.869Z,37.45
2022-10-24T04:38:41.889Z,37.60
2022-10-24T04:41:11.956Z,40.05
2022-10-24T04:43:52.739Z,37.10
2022-10-24T04:46:53.689Z,40.17
2022-10-24T04:49:34.867Z,41.33
2022-10-24T04:52:02.798Z,42.28
2022-10-24T04:55:21.746Z,42.13
2022-10-24T04:58:04.076Z,39.05
2022-10-24T05:00:45.165Z,41.97
2022-10-24T05:07:32.301Z,38.45
2022-10-24T05:10:02.271Z,39.43
2022-10-24T05:12:30.569Z,37.83
2022-10-24T05:15:11.261Z,39.88
2022-10-24T05:17:39.275Z,39.65
2022-10-24T05:20:13.278Z,39.63
2022-10-24T05:25:56.681Z,37.63
2022-10-24T05:28:24.954Z,36.97
2022-10-24T05:30:53.378Z,38.83
2022-10-24T05:33:21.129Z,36.80
2022-10-24T05:35:50.045Z,38.28
2022-10-24T05:47:38.502Z,38.42
2022-10-24T05:50:15.934Z,40.15
2022-10-24T05:56:10.877Z,39.40
2022-10-24T05:59:00.091Z,42.67
2022-10-24T06:01:28.125Z,43.67
2022-10-24T06:03:59.412Z,45.70
2022-10-24T06:06:28.060Z,44.67
2022-10-24T06:08:55.872Z,44.65
2022-10-24T06:11:24.288Z,44.35
2022-10-24T06:13:51.967Z,45.72
2022-10-24T06:16:40.994Z,43.45
2022-10-24T06:19:22.319Z,51.22
2022-10-24T06:22:09.776Z,60.28
2022-10-24T06:24:50.804Z,61.10
2022-10-24T06:27:19.144Z,68.88
2022-10-24T06:29:47.043Z,66.35
2022-10-24T06:32:14.534Z,74.90
2022-10-24T06:34:42.144Z,75.07
2022-10-24T06:37:09.667Z,76.57
2022-10-24T06:39:37.549Z,82.13
2022-10-24T06:42:25.319Z,79.68
2022-10-24T06:45:21.633Z,81.57
2022-10-24T06:48:02.574Z,83.25
2022-10-24T06:50:31.394Z,73.28
2022-10-24T06:53:19.019Z,74.90
2022-10-24T06:56:20.079Z,70.85
2022-10-24T06:59:02.794Z,60.50
2022-10-24T07:01:36.102Z,58.97
2022-10-24T07:04:05.664Z,53.47
2022-10-24T07:06:34.776Z,52.92
2022-10-24T07:09:11.494Z,46.08
2022-10-24T07:11:46.663Z,46.55
2022-10-24T07:14:14.696Z,47.05
2022-10-24T07:17:09.187Z,43.28
2022-10-24T07:19:57.600Z,45.45
2022-10-24T07:22:28.350Z,41.78
2022-10-24T07:25:32.056Z,38.35
2022-10-24T07:28:03.462Z,42.50
2022-10-24T07:30:35.837Z,41.53
2022-10-24T07:33:03.994Z,41.25
2022-10-24T07:35:31.482Z,44.83
2022-10-24T07:38:22.299Z,42.90
2022-10-24T07:41:27.045Z,43.22
2022-10-24T07:44:27.982Z,47.20
2022-10-24T07:47:27.279Z,45.72
2022-10-24T07:50:14.940Z,44.33
2022-10-24T07:52:56.272Z,44.10
2022-10-24T07:55:43.873Z,45.85
2022-10-24T07:58:24.859Z,43.75
2022-10-24T08:00:52.660Z,44.75
2022-10-24T08:03:20.897Z,46.35
2022-10-24T08:05:48.846Z,44.53
2022-10-24T08:08:36.949Z,41.55
2022-10-24T08:11:22.171Z,40.20
2022-10-24T08:13:50.401Z,43.53
2022-10-24T08:16:21.139Z,40.95
2022-10-24T08:18:54.041Z,43.92
2022-10-24T08:21:42.571Z,41.60
2022-10-24T08:24:19.599Z,40.85
2022-10-24T08:26:50.041Z,40.35
2022-10-24T08:29:22.814Z,40.95
2022-10-24T08:31:55.088Z,36.90
2022-10-24T08:34:23.467Z,31.38
2022-10-24T08:36:51.407Z,33.08
2022-10-24T08:39:19.006Z,32.25
2022-10-24T08:42:08.911Z,36.45
2022-10-24T08:45:10.178Z,33.40
2022-10-24T08:48:03.879Z,32.95
2022-10-24T08:50:35.803Z,35.03
2022-10-24T08:53:29.154Z,30.40
2022-10-24T09:03:12.146Z,33.58
2022-10-24T09:13:14.731Z,31.27
2022-10-24T09:15:44.217Z,30.88
2022-10-24T09:18:53.316Z,29.05
2022-10-24T09:21:20.390Z,32.15
2022-10-24T09:23:48.781Z,25.77
2022-10-24T09:26:26.452Z,30.73
2022-10-24T09:28:55.171Z,30.60
2022-10-24T09:31:24.867Z,32.50
2022-10-24T09:33:53.502Z,34.78
2022-10-24T09:36:24.980Z,32.17
2022-10-24T09:38:52.151Z,30.75
2022-10-24T09:41:43.833Z,32.28
2022-10-24T09:44:55.814Z,30.50
2022-10-24T09:47:56.803Z,31.45
2022-10-24T09:50:42.232Z,29.52
2022-10-24T09:53:36.802Z,31.17
2022-10-24T09:56:54.302Z,36.50
2022-10-24T09:59:57.921Z,28.58
2022-10-24T10:02:34.777Z,33.20
2022-10-24T10:05:33.861Z,32.17
2022-10-24T10:08:22.121Z,33.05
2022-10-24T10:11:29.827Z,30.05
2022-10-24T10:14:37.813Z,30.85
2022-10-24T10:17:25.520Z,29.35
2022-10-24T10:22:28.624Z,31.85
2022-10-24T10:24:56.634Z,30.08
2022-10-24T10:27:41.943Z,31.48
2022-10-24T10:30:22.636Z,31.40
2022-10-24T10:33:12.474Z,29.35
2022-10-24T10:36:02.969Z,31.80
2022-10-24T10:39:01.957Z,29.03
2022-10-24T10:42:00.828Z,31.17
2022-10-24T10:44:44.559Z,29.65
2022-10-24T10:47:23.793Z,31.40
2022-10-24T10:49:58.700Z,29.45
2022-10-24T10:52:42.263Z,30.10
2022-10-24T10:55:43.854Z,33.95
2022-10-24T11:01:27.600Z,33.55
2022-10-24T11:04:13.026Z,31.77
2022-10-24T11:06:47.001Z,32.63
2022-10-24T11:12:04.836Z,36.85
2022-10-24T11:15:37.844Z,35.53
2022-10-24T11:18:27.856Z,33.83
2022-10-24T11:21:03.962Z,33.03
2022-10-24T11:23:54.854Z,32.13
2022-10-24T11:26:31.084Z,30.15
2022-10-24T11:29:17.529Z,30.17
2022-10-24T11:32:13.844Z,29.98
2022-10-24T11:35:36.885Z,29.75
2022-10-24T11:38:24.517Z,30.48
2022-10-24T11:41:10.871Z,22.42
2022-10-24T11:44:07.522Z,23.50
2022-10-24T11:46:44.576Z,24.08
2022-10-24T11:49:26.099Z,22.73
2022-10-24T11:52:04.938Z,22.35
2022-10-24T11:55:03.913Z,23.60
2022-10-24T11:58:12.861Z,24.25
2022-10-24T12:01:21.999Z,23.42
2022-10-24T12:04:21.705Z,21.60
2022-10-24T12:07:14.909Z,24.20
2022-10-24T12:09:55.519Z,24.02
2022-10-24T12:12:47.871Z,23.42
2022-10-24T12:15:41.521Z,22.13
2022-10-24T12:18:48.891Z,23.52
2022-10-24T12:21:39.803Z,21.17
2022-10-24T12:24:21.068Z,21.15
2022-10-24T12:26:57.149Z,20.40
2022-10-24T12:29:26.563Z,19.05
2022-10-24T12:32:37.904Z,18.30
2022-10-24T12:35:31.615Z,18.80
2022-10-24T12:37:59.792Z,19.02
2022-10-24T12:40:45.378Z,16.10
2022-10-24T12:43:44.907Z,14.90
2022-10-24T12:46:25.613Z,15.32
2022-10-24T12:49:12.907Z,15.20
2022-10-24T12:52:46.126Z,14.73
2022-10-24T12:55:49.902Z,14.88
2022-10-24T12:58:55.921Z,14.27
2022-10-24T13:01:38.254Z,14.20
2022-10-24T13:04:21.694Z,13.98
2022-10-24T13:07:13.296Z,12.67
2022-10-24T13:10:12.093Z,11.40
2022-10-24T13:12:58.998Z,22.02
2022-10-24T13:16:15.935Z,14.50
2022-10-24T13:19:18.139Z,13.27
2022-10-24T13:21:50.515Z,12.23
2022-10-24T13:24:17.379Z,14.25
2022-10-24T13:26:46.373Z,11.57
2022-10-24T13:29:39.619Z,10.43
2022-10-24T13:32:06.529Z,11.63
2022-10-24T13:34:54.628Z,10.57
2022-10-24T13:37:44.072Z,10.30
2022-10-24T13:40:30.495Z,9.82
2022-10-24T13:42:59.011Z,10.32
2022-10-24T13:45:44.888Z,9.65
2022-10-24T13:48:34.957Z,9.50
2022-10-24T13:51:45.951Z,9.65
2022-10-24T13:54:53.220Z,9.98
2022-10-24T13:57:52.660Z,10.02
2022-10-24T14:00:45.992Z,9.75
2022-10-24T14:03:29.739Z,9.48
2022-10-24T14:06:06.612Z,9.63
2022-10-24T14:08:38.926Z,8.60
2022-10-24T14:11:33.970Z,7.28
2022-10-24T14:14:42.967Z,11.38
2022-10-24T14:17:28.762Z,7.68
2022-10-24T14:20:02.246Z,6.82
2022-10-24T14:22:40.529Z,9.38
2022-10-24T14:25:36.239Z,7.78
2022-10-24T14:28:20.358Z,7.95
2022-10-24T14:30:59.466Z,6.25
2022-10-24T14:33:42.325Z,6.90
2022-10-24T14:36:09.624Z,6.90
2022-10-24T14:38:36.959Z,6.53
2022-10-24T14:41:09.579Z,6.95
2022-10-24T14:43:42.637Z,6.03
2022-10-24T14:46:12.885Z,4.80
2022-10-24T14:48:43.242Z,6.82
2022-10-24T14:51:18.824Z,6.80
2022-10-24T14:54:06.022Z,7.03
2022-10-24T14:57:10.351Z,7.07
2022-10-24T15:00:07.548Z,7.93
2022-10-24T15:02:43.122Z,8.40
2022-10-24T15:05:19.716Z,7.95
2022-10-24T15:08:23.189Z,8.05
2022-10-24T15:11:35.022Z,7.63
2022-10-24T15:15:05.057Z,7.20
2022-10-24T15:18:10.035Z,7.05
2022-10-24T15:21:03.884Z,10.00
2022-10-24T15:23:33.522Z,8.10
2022-10-24T15:26:07.777Z,9.57
2022-10-24T15:28:55.996Z,9.73
2022-10-24T15:31:27.735Z,8.07
2022-10-24T15:33:55.942Z,10.73
2022-10-24T15:36:31.610Z,10.20
2022-10-24T15:39:20.661Z,11.35
2022-10-24T15:42:08.062Z,11.55
2022-10-24T15:44:49.229Z,10.95
2022-10-24T15:47:16.124Z,11.02
2022-10-24T15:50:04.057Z,11.20
2022-10-24T15:52:49.704Z,11.30
2022-10-24T15:55:40.052Z,10.75
2022-10-24T15:58:41.100Z,11.93
2022-10-24T16:01:48.174Z,13.30
2022-10-24T16:04:29.918Z,14.52
2022-10-24T16:06:56.954Z,14.02
2022-10-24T16:09:27.602Z,14.88
2022-10-24T16:12:15.059Z,17.50
2022-10-24T16:15:16.099Z,17.45
2022-10-24T16:17:56.629Z,19.48
2022-10-24T16:20:44.107Z,16.98
2022-10-24T16:23:26.258Z,19.98
2022-10-24T16:25:53.415Z,20.63
2022-10-24T16:28:23.587Z,19.42
2022-10-24T16:30:51.024Z,20.13
2022-10-24T16:33:20.218Z,19.63
2022-10-24T16:35:50.136Z,19.30
2022-10-24T16:38:17.322Z,20.63
2022-10-24T16:41:04.102Z,21.90
2022-10-24T16:43:55.899Z,20.30
2022-10-24T16:46:24.235Z,18.90
2022-10-24T16:48:51.572Z,20.17
2022-10-24T16:51:44.003Z,20.67
2022-10-24T16:54:45.151Z,19.08
2022-10-24T16:57:46.287Z,23.65
2022-10-24T17:00:27.151Z,20.02
2022-10-24T17:02:56.146Z,18.67
2022-10-24T17:05:25.133Z,19.63
2022-10-24T17:08:12.131Z,20.83
2022-10-24T17:11:39.475Z,22.15
2022-10-24T17:14:34.089Z,18.08
2022-10-24T17:17:35.145Z,18.65
2022-10-24T17:20:17.355Z,19.02
2022-10-24T17:22:45.647Z,13.85
2022-10-24T17:25:38.100Z,14.68
2022-10-24T17:28:32.998Z,13.55
2022-10-24T17:31:00.669Z,16.63
2022-10-24T17:33:27.888Z,15.75
2022-10-24T17:35:57.589Z,17.27
2022-10-24T17:38:40.462Z,18.58
2022-10-24T17:41:26.644Z,17.80
2022-10-24T17:43:55.419Z,19.83
2022-10-24T17:46:45.171Z,15.88
2022-10-24T17:49:25.797Z,18.75
2022-10-24T17:51:52.905Z,21.42
2022-10-24T17:54:44.794Z,24.35
2022-10-24T17:57:25.686Z,26.75
2022-10-24T18:00:15.126Z,24.10
2022-10-24T18:02:55.734Z,24.35
2022-10-24T18:05:22.837Z,24.30
2022-10-24T18:07:51.045Z,25.63
2022-10-24T18:10:18.022Z,26.50
2022-10-24T18:13:05.172Z,25.38
2022-10-24T18:16:06.177Z,21.33
2022-10-24T18:18:47.686Z,21.85
2022-10-24T18:21:37.186Z,21.58
2022-10-24T18:24:38.154Z,21.52
2022-10-24T18:27:18.690Z,22.95
2022-10-24T18:30:06.258Z,25.48
2022-10-24T18:33:07.185Z,20.50
2022-10-24T18:36:04.525Z,19.92
2022-10-24T18:38:34.654Z,23.95
2022-10-24T18:41:02.846Z,20.10
2022-10-24T18:43:30.268Z,21.08
2022-10-24T18:45:57.547Z,19.83
2022-10-24T18:48:24.894Z,20.20
2022-10-24T18:50:52.159Z,17.15
2022-10-24T18:53:23.755Z,18.40
2022-10-24T18:56:11.205Z,17.60
2022-10-24T18:59:14.149Z,17.83
2022-10-24T19:02:27.232Z,18.30
2022-10-24T19:05:31.305Z,18.45
2022-10-24T19:08:22.169Z,18.23
2022-10-24T19:14:15.194Z,15.30
2022-10-24T19:16:58.262Z,13.40
2022-10-24T19:19:29.222Z,17.00
2022-10-24T19:21:56.373Z,17.10
2022-10-24T19:24:23.404Z,18.35
2022-10-24T19:27:10.235Z,17.67
2022-10-24T19:30:11.214Z,18.35
2022-10-24T19:32:51.838Z,19.27
2022-10-24T19:35:19.915Z,19.15
2022-10-24T19:37:47.081Z,20.52
2022-10-24T19:40:14.651Z,17.67
2022-10-24T19:42:41.679Z,22.45
2022-10-24T19:45:29.193Z,22.10
2022-10-24T19:48:11.864Z,23.02
2022-10-24T19:50:38.753Z,23.15
2022-10-24T19:53:05.748Z,22.55
2022-10-24T19:55:53.243Z,22.85
2022-10-24T19:58:55.215Z,27.35
2022-10-24T20:01:36.554Z,23.85
2022-10-24T20:04:03.725Z,23.13
2022-10-24T20:06:30.916Z,25.80
2022-10-24T20:08:57.896Z,26.85
2022-10-24T20:11:24.824Z,30.27
2022-10-24T20:13:51.907Z,28.45
2022-10-24T20:16:33.561Z,27.45
2022-10-24T20:19:34.232Z,26.83
2022-10-24T20:22:14.931Z,30.63
2022-10-24T20:24:41.939Z,28.02
2022-10-24T20:27:29.235Z,26.48
2022-10-24T20:30:10.534Z,27.85
2022-10-24T20:32:37.433Z,25.25
2022-10-24T20:35:04.646Z,28.35
2022-10-24T20:37:31.565Z,27.88
2022-10-24T20:39:58.463Z,27.90
2022-10-24T20:42:25.407Z,26.75
2022-10-24T20:44:52.341Z,26.90
2022-10-24T20:47:41.227Z,29.77
2022-10-24T20:50:42.208Z,26.35
2022-10-24T20:53:22.769Z,29.08
2022-10-24T20:56:10.289Z,27.88
2022-10-24T20:58:52.074Z,29.08
2022-10-24T21:01:24.481Z,27.38
2022-10-24T21:03:53.143Z,28.67
2022-10-24T21:06:22.926Z,28.83
2022-10-24T21:08:51.782Z,28.25
2022-10-24T21:11:41.218Z,29.75
2022-10-24T21:14:21.855Z,28.20
2022-10-24T21:17:09.229Z,28.80
2022-10-24T21:20:10.297Z,28.83
2022-10-24T21:22:50.906Z,27.73
2022-10-24T21:25:17.856Z,29.40
2022-10-24T21:27:45.119Z,29.00
2022-10-24T21:30:33.331Z,27.20
2022-10-24T21:33:27.234Z,27.55
2022-10-24T21:36:15.439Z,28.75
2022-10-24T21:38:45.900Z,31.17
2022-10-24T21:41:12.794Z,29.08
2022-10-24T21:43:41.615Z,28.17
2022-10-24T21:46:11.407Z,27.98
2022-10-24T21:48:39.612Z,28.75
2022-10-24T21:51:08.314Z,24.55
2022-10-24T21:53:59.259Z,25.00
2022-10-24T21:57:00.312Z,24.65
2022-10-24T22:00:01.307Z,24.55
2022-10-24T22:03:04.080Z,26.67
2022-10-24T22:06:09.276Z,26.98
2022-10-24T22:08:51.150Z,28.80
2022-10-24T22:11:24.337Z,25.88
2022-10-24T22:13:52.251Z,27.50
2022-10-24T22:16:21.593Z,28.20
2022-10-24T22:19:08.289Z,29.48
2022-10-24T22:22:02.436Z,27.58
2022-10-24T22:24:44.847Z,28.85
2022-10-24T22:27:32.279Z,28.95
2022-10-24T22:30:13.636Z,28.35
2022-10-24T22:32:40.896Z,29.77
2022-10-24T22:35:10.166Z,29.45
2022-10-24T22:37:37.374Z,29.40
2022-10-24T22:40:19.362Z,28.27
2022-10-24T22:42:46.696Z,29.65
2022-10-24T22:45:14.489Z,29.50
2022-10-24T22:47:45.815Z,28.23
2022-10-24T22:50:51.762Z,28.67
2022-10-24T22:53:42.307Z,30.88
2022-10-24T22:56:43.321Z,31.65
2022-10-24T22:59:24.253Z,28.77
2022-10-24T23:02:09.462Z,29.35
2022-10-24T23:05:10.313Z,28.30
2022-10-24T23:08:17.280Z,29.80
2022-10-24T23:10:58.139Z,26.45
2022-10-24T23:13:25.559Z,31.40
2022-10-24T23:15:54.943Z,31.30
2022-10-24T23:18:22.148Z,31.17
2022-10-24T23:21:13.446Z,30.30
2022-10-24T23:24:00.311Z,33.75
2022-10-24T23:27:13.439Z,32.17
2022-10-24T23:29:43.178Z,32.35
2022-10-24T23:32:20.307Z,34.97
2022-10-24T23:34:48.139Z,38.88
2022-10-24T23:37:32.047Z,34.88
2022-10-24T23:40:19.389Z,33.78
2022-10-24T23:42:48.217Z,35.67
2022-10-24T23:45:17.710Z,34.88
2022-10-24T23:48:03.911Z,35.30
2022-10-24T23:50:58.074Z,39.13
2022-10-24T23:53:59.314Z,38.83
2022-10-24T23:57:00.389Z,39.03
2022-10-24T23:59:41.082Z,34.92
